createdAt,value
2023-05-10T00:00:54.576Z,72.24
2023-05-10T00:01:54.624Z,72.36
2023-05-10T00:02:54.688Z,71.77
2023-05-10T00:03:54.664Z,72.66
2023-05-10T00:04:54.682Z,72.20
2023-05-10T00:05:54.686Z,72.79
2023-05-10T00:06:54.738Z,72.34
2023-05-10T00:07:54.818Z,72.42
2023-05-10T00:08:54.794Z,71.70
2023-05-10T00:09:54.811Z,71.73
2023-05-10T00:10:54.946Z,71.89
2023-05-10T00:11:54.917Z,71.92
2023-05-10T00:12:55.014Z,72.09
2023-05-10T00:13:55.036Z,72.26
2023-05-10T00:14:55.043Z,72.64
2023-05-10T00:15:55.121Z,71.13
2023-05-10T00:16:55.315Z,71.86
2023-05-10T00:17:55.337Z,71.92
2023-05-10T00:18:55.296Z,71.45
2023-05-10T00:19:55.339Z,71.40
2023-05-10T00:20:55.360Z,71.17
2023-05-10T00:21:55.362Z,71.37
2023-05-10T00:22:55.428Z,70.79
2023-05-10T00:23:55.459Z,70.79
2023-05-10T00:24:55.511Z,70.76
2023-05-10T00:25:55.506Z,70.82
2023-05-10T00:26:55.562Z,70.24
2023-05-10T00:27:55.629Z,69.78
2023-05-10T00:28:55.612Z,69.88
2023-05-10T00:29:55.665Z,69.98
2023-05-10T00:30:55.627Z,69.25
2023-05-10T00:31:55.662Z,69.43
2023-05-10T00:32:55.639Z,68.91
2023-05-10T00:33:55.612Z,69.67
2023-05-10T00:34:55.646Z,69.67
2023-05-10T00:35:55.604Z,69.40
2023-05-10T00:36:55.664Z,69.51
2023-05-10T00:37:55.666Z,69.96
2023-05-10T00:38:55.645Z,69.45
2023-05-10T00:39:55.686Z,69.80
2023-05-10T00:40:55.695Z,68.97
2023-05-10T00:41:55.744Z,68.81
2023-05-10T00:42:55.882Z,68.58
2023-05-10T00:43:55.909Z,69.45
2023-05-10T00:44:55.888Z,69.20
2023-05-10T00:45:55.978Z,68.61
2023-05-10T00:46:55.989Z,68.77
2023-05-10T00:47:56.143Z,69.07
2023-05-10T00:48:56.092Z,68.37
2023-05-10T00:49:56.144Z,68.23
2023-05-10T00:50:56.158Z,68.58
2023-05-10T00:51:56.174Z,68.48
2023-05-10T00:52:56.224Z,67.82
2023-05-10T00:53:56.226Z,68.37
2023-05-10T00:54:56.276Z,67.82
2023-05-10T00:55:56.261Z,67.83
2023-05-10T00:56:56.810Z,68.08
2023-05-10T00:57:56.282Z,67.64
2023-05-10T00:58:56.282Z,67.69
2023-05-10T00:59:56.389Z,67.84
2023-05-10T01:00:56.465Z,67.39
2023-05-10T01:01:56.447Z,66.74
2023-05-10T01:02:56.580Z,67.67
2023-05-10T01:03:56.466Z,66.87
2023-05-10T01:04:56.586Z,66.54
2023-05-10T01:05:56.582Z,66.59
2023-05-10T01:06:56.664Z,66.32
2023-05-10T01:07:56.696Z,66.10
2023-05-10T01:08:56.714Z,65.54
2023-05-10T01:09:56.761Z,65.31
2023-05-10T01:10:56.690Z,64.98
2023-05-10T01:11:56.782Z,64.36
2023-05-10T01:12:56.920Z,64.72
2023-05-10T01:13:56.875Z,65.65
2023-05-10T01:14:56.956Z,65.14
2023-05-10T01:15:57.078Z,65.07
2023-05-10T01:16:57.070Z,65.04
2023-05-10T01:17:57.147Z,65.07
2023-05-10T01:18:57.166Z,64.48
2023-05-10T01:19:57.305Z,64.12
2023-05-10T01:20:57.362Z,63.50
2023-05-10T01:21:57.386Z,63.54
2023-05-10T01:22:57.443Z,63.54
2023-05-10T01:23:57.508Z,63.90
2023-05-10T01:24:57.551Z,63.42
2023-05-10T01:25:57.507Z,63.17
2023-05-10T01:26:57.546Z,63.06
2023-05-10T01:27:57.561Z,63.06
2023-05-10T01:28:57.550Z,62.62
2023-05-10T01:30:13.639Z,62.91
2023-05-10T01:30:58.589Z,63.07
2023-05-10T01:31:57.576Z,63.14
2023-05-10T01:32:57.596Z,64.07
2023-05-10T01:33:57.558Z,63.66
2023-05-10T01:34:57.545Z,63.29
2023-05-10T01:35:57.513Z,63.20
2023-05-10T01:36:57.493Z,63.52
2023-05-10T01:37:57.544Z,62.96
2023-05-10T01:38:57.536Z,62.83
2023-05-10T01:39:57.484Z,62.39
2023-05-10T01:40:57.502Z,62.24
2023-05-10T01:41:57.485Z,62.04
2023-05-10T01:42:57.509Z,61.85
2023-05-10T01:43:57.447Z,61.69
2023-05-10T01:44:57.468Z,61.58
2023-05-10T01:45:57.452Z,61.33
2023-05-10T01:46:57.670Z,61.63
2023-05-10T01:47:57.580Z,61.52
2023-05-10T01:48:57.461Z,61.49
2023-05-10T01:49:57.478Z,61.67
2023-05-10T01:50:57.428Z,62.61
2023-05-10T01:51:57.425Z,61.69
2023-05-10T01:52:57.411Z,61.80
2023-05-10T01:53:57.409Z,61.34
2023-05-10T01:54:57.401Z,61.20
2023-05-10T01:55:57.405Z,61.30
2023-05-10T01:56:57.350Z,61.54
2023-05-10T01:57:57.378Z,61.47
2023-05-10T01:58:57.350Z,61.15
2023-05-10T01:59:57.372Z,61.07
2023-05-10T02:00:57.454Z,61.02
2023-05-10T02:01:57.384Z,61.50
2023-05-10T02:02:57.538Z,61.19
2023-05-10T02:03:57.499Z,61.12
2023-05-10T02:04:57.472Z,61.01
2023-05-10T02:05:57.552Z,61.15
2023-05-10T02:06:57.519Z,61.52
2023-05-10T02:07:57.593Z,61.34
2023-05-10T02:08:57.589Z,61.24
2023-05-10T02:09:57.612Z,61.30
2023-05-10T02:10:57.648Z,61.80
2023-05-10T02:11:57.678Z,61.54
2023-05-10T02:12:57.733Z,61.36
2023-05-10T02:13:57.673Z,61.31
2023-05-10T02:14:57.707Z,61.59
2023-05-10T02:15:57.710Z,61.42
2023-05-10T02:16:57.757Z,61.07
2023-05-10T02:17:58.021Z,61.74
2023-05-10T02:18:57.779Z,62.48
2023-05-10T02:19:57.842Z,62.41
2023-05-10T02:20:57.859Z,61.32
2023-05-10T02:21:57.978Z,61.61
2023-05-10T02:22:57.973Z,61.38
2023-05-10T02:23:58.011Z,61.32
2023-05-10T02:24:58.060Z,61.28
2023-05-10T02:25:58.170Z,61.91
2023-05-10T02:26:58.208Z,62.84
2023-05-10T02:27:58.224Z,62.75
2023-05-10T02:28:58.255Z,63.04
2023-05-10T02:29:58.264Z,63.17
2023-05-10T02:30:58.319Z,63.63
2023-05-10T02:31:58.488Z,63.08
2023-05-10T02:32:58.475Z,63.31
2023-05-10T02:33:58.421Z,64.25
2023-05-10T02:34:58.502Z,64.91
2023-05-10T02:35:58.600Z,64.93
2023-05-10T02:36:58.587Z,64.64
2023-05-10T02:37:58.575Z,64.40
2023-05-10T02:38:58.573Z,64.42
2023-05-10T02:39:58.583Z,64.84
2023-05-10T02:40:58.634Z,65.09
2023-05-10T02:41:58.630Z,64.45
2023-05-10T02:42:58.638Z,64.46
2023-05-10T02:43:58.653Z,64.38
2023-05-10T02:44:58.665Z,64.45
2023-05-10T02:45:58.691Z,64.28
2023-05-10T02:46:58.666Z,64.37
2023-05-10T02:47:58.713Z,64.40
2023-05-10T02:48:58.676Z,65.23
2023-05-10T02:49:58.761Z,65.00
2023-05-10T02:50:58.725Z,65.26
2023-05-10T02:51:58.754Z,64.48
2023-05-10T02:52:58.782Z,64.72
2023-05-10T02:53:58.876Z,66.04
2023-05-10T02:54:58.961Z,65.93
2023-05-10T02:55:58.976Z,65.35
2023-05-10T02:56:59.005Z,65.47
2023-05-10T02:57:58.957Z,65.77
2023-05-10T02:58:59.058Z,65.37
2023-05-10T02:59:59.062Z,65.31
2023-05-10T03:00:59.087Z,65.03
2023-05-10T03:01:59.095Z,64.72
2023-05-10T03:02:59.194Z,64.94
2023-05-10T03:03:59.095Z,64.58
2023-05-10T03:04:59.426Z,64.44
2023-05-10T03:05:59.117Z,64.30
2023-05-10T03:06:59.115Z,64.06
2023-05-10T03:07:59.143Z,64.09
2023-05-10T03:08:59.232Z,64.32
2023-05-10T03:09:59.339Z,63.87
2023-05-10T03:10:59.353Z,63.92
2023-05-10T03:11:59.455Z,63.91
2023-05-10T03:12:59.468Z,64.48
2023-05-10T03:13:59.469Z,63.93
2023-05-10T03:14:59.555Z,64.08
2023-05-10T03:15:59.584Z,63.66
2023-05-10T03:16:59.550Z,63.26
2023-05-10T03:17:59.658Z,63.15
2023-05-10T03:18:59.608Z,63.49
2023-05-10T03:19:59.683Z,63.49
2023-05-10T03:20:59.725Z,63.45
2023-05-10T03:21:59.800Z,63.94
2023-05-10T03:22:59.846Z,64.09
2023-05-10T03:23:59.944Z,64.27
2023-05-10T03:24:59.956Z,63.91
2023-05-10T03:26:00.015Z,63.88
2023-05-10T03:27:00.029Z,63.61
2023-05-10T03:28:00.054Z,63.62
2023-05-10T03:29:00.124Z,64.43
2023-05-10T03:30:00.265Z,64.26
2023-05-10T03:31:00.227Z,64.51
2023-05-10T03:32:00.261Z,65.34
2023-05-10T03:33:00.352Z,65.64
2023-05-10T03:34:00.336Z,65.59
2023-05-10T03:35:00.337Z,65.98
2023-05-10T03:36:00.408Z,66.13
2023-05-10T03:37:00.394Z,65.90
2023-05-10T03:38:00.415Z,66.06
2023-05-10T03:39:00.415Z,66.36
2023-05-10T03:40:00.454Z,66.89
2023-05-10T03:41:00.439Z,66.06
2023-05-10T03:42:00.459Z,65.74
2023-05-10T03:43:00.461Z,65.52
2023-05-10T03:44:00.459Z,65.27
2023-05-10T03:45:00.519Z,64.44
2023-05-10T03:46:00.524Z,64.63
2023-05-10T03:47:00.727Z,64.34
2023-05-10T03:48:00.714Z,64.81
2023-05-10T03:49:00.806Z,65.18
2023-05-10T03:50:00.748Z,66.02
2023-05-10T03:51:00.804Z,66.42
2023-05-10T03:52:00.859Z,67.87
2023-05-10T03:53:00.871Z,68.27
2023-05-10T03:54:00.823Z,68.19
2023-05-10T03:55:00.884Z,68.27
2023-05-10T03:56:00.833Z,68.01
2023-05-10T03:57:00.855Z,67.88
2023-05-10T03:58:00.999Z,68.47
2023-05-10T03:59:00.909Z,68.15
2023-05-10T04:00:00.995Z,68.14
2023-05-10T04:01:00.989Z,68.24
2023-05-10T04:02:01.064Z,68.46
2023-05-10T04:03:01.087Z,68.05
2023-05-10T04:04:01.144Z,68.64
2023-05-10T04:05:01.157Z,68.26
2023-05-10T04:06:01.262Z,67.73
2023-05-10T04:07:01.237Z,67.46
2023-05-10T04:08:01.276Z,67.73
2023-05-10T04:09:01.290Z,67.39
2023-05-10T04:10:01.243Z,67.13
2023-05-10T04:11:01.292Z,67.07
2023-05-10T04:12:01.366Z,66.65
2023-05-10T04:13:01.489Z,66.41
2023-05-10T04:14:01.528Z,65.68
2023-05-10T04:15:01.587Z,65.38
2023-05-10T04:16:01.594Z,65.28
2023-05-10T04:17:02.250Z,65.00
2023-05-10T04:18:01.872Z,64.61
2023-05-10T04:19:01.836Z,64.88
2023-05-10T04:20:01.878Z,65.14
2023-05-10T04:21:01.933Z,64.39
2023-05-10T04:22:01.996Z,63.51
2023-05-10T04:23:02.054Z,64.60
2023-05-10T04:24:02.126Z,63.97
2023-05-10T04:25:02.125Z,63.50
2023-05-10T04:26:02.175Z,63.25
2023-05-10T04:27:02.232Z,64.29
2023-05-10T04:28:02.336Z,64.14
2023-05-10T04:29:02.351Z,64.25
2023-05-10T04:30:02.415Z,64.41
2023-05-10T04:31:02.522Z,64.39
2023-05-10T04:32:02.570Z,63.39
2023-05-10T04:33:02.760Z,63.92
2023-05-10T04:34:02.707Z,63.76
2023-05-10T04:35:02.796Z,63.48
2023-05-10T04:36:02.824Z,63.03
2023-05-10T04:37:02.910Z,62.96
2023-05-10T04:38:02.911Z,62.95
2023-05-10T04:39:02.961Z,63.50
2023-05-10T04:40:03.050Z,62.86
2023-05-10T04:41:03.086Z,63.57
2023-05-10T04:42:03.150Z,62.73
2023-05-10T04:43:03.198Z,62.57
2023-05-10T04:44:03.267Z,62.30
2023-05-10T04:45:03.265Z,62.12
2023-05-10T04:46:03.415Z,62.30
2023-05-10T04:47:03.327Z,62.12
2023-05-10T04:48:03.434Z,61.98
2023-05-10T04:49:03.481Z,61.59
2023-05-10T04:50:03.518Z,61.63
2023-05-10T04:51:03.632Z,61.66
2023-05-10T04:52:03.642Z,61.73
2023-05-10T04:53:03.739Z,62.41
2023-05-10T04:54:06.645Z,62.20
2023-05-10T04:55:03.748Z,62.13
2023-05-10T04:56:03.732Z,62.18
2023-05-10T04:57:03.749Z,62.37
2023-05-10T04:58:03.719Z,62.53
2023-05-10T04:59:03.712Z,62.39
2023-05-10T05:00:03.719Z,62.62
2023-05-10T05:02:31.442Z,61.84
2023-05-10T05:03:23.777Z,60.85
2023-05-10T05:04:23.719Z,61.54
2023-05-10T05:05:23.737Z,60.44
2023-05-10T05:06:23.728Z,60.77
2023-05-10T05:07:23.703Z,60.68
2023-05-10T05:08:23.640Z,60.91
2023-05-10T05:09:23.663Z,59.76
2023-05-10T05:10:23.667Z,60.14
2023-05-10T05:11:23.680Z,60.64
2023-05-10T05:12:23.672Z,60.43
2023-05-10T05:13:23.845Z,60.66
2023-05-10T05:14:23.608Z,61.58
2023-05-10T05:15:23.644Z,61.35
2023-05-10T05:16:23.683Z,60.62
2023-05-10T05:17:23.627Z,60.89
2023-05-10T05:18:23.727Z,60.70
2023-05-10T05:19:23.725Z,61.12
2023-05-10T05:20:23.626Z,60.85
2023-05-10T05:21:23.637Z,61.74
2023-05-10T05:22:23.632Z,61.53
2023-05-10T05:23:23.611Z,61.59
2023-05-10T05:24:23.665Z,61.92
2023-05-10T05:25:23.629Z,61.83
2023-05-10T05:26:23.603Z,61.38
2023-05-10T05:27:23.682Z,61.54
2023-05-10T05:28:23.687Z,62.08
2023-05-10T05:29:23.785Z,61.65
2023-05-10T05:30:23.808Z,62.07
2023-05-10T05:31:23.947Z,61.61
2023-05-10T05:32:23.967Z,61.74
2023-05-10T05:33:24.020Z,61.85
2023-05-10T05:34:24.462Z,62.04
2023-05-10T05:35:24.108Z,63.27
2023-05-10T05:36:24.142Z,63.15
2023-05-10T05:37:24.165Z,63.01
2023-05-10T05:38:24.122Z,63.81
2023-05-10T05:39:24.374Z,63.73
2023-05-10T05:40:24.272Z,63.37
2023-05-10T05:41:24.384Z,63.86
2023-05-10T05:42:24.396Z,64.08
2023-05-10T05:43:25.391Z,63.41
2023-05-10T05:44:24.907Z,63.61
2023-05-10T05:45:25.337Z,64.15
2023-05-10T05:47:44.147Z,64.96
2023-05-10T05:48:44.115Z,64.90
2023-05-10T05:49:43.899Z,63.87
2023-05-10T05:50:43.865Z,64.46
2023-05-10T05:51:43.892Z,63.50
2023-05-10T05:52:43.851Z,64.39
2023-05-10T05:53:44.077Z,64.35
2023-05-10T05:54:43.838Z,63.90
2023-05-10T05:55:43.850Z,63.23
2023-05-10T05:56:43.870Z,63.01
2023-05-10T05:57:43.807Z,63.91
2023-05-10T05:58:43.856Z,62.88
2023-05-10T05:59:44.105Z,63.41
2023-05-10T06:00:43.793Z,63.71
2023-05-10T06:01:43.835Z,63.16
2023-05-10T06:02:43.875Z,62.89
2023-05-10T06:03:43.877Z,62.98
2023-05-10T06:04:44.910Z,63.87
2023-05-10T06:05:43.786Z,63.24
2023-05-10T06:06:43.805Z,64.17
2023-05-10T06:07:43.739Z,63.34
2023-05-10T06:08:43.734Z,62.95
2023-05-10T06:09:43.767Z,63.70
2023-05-10T06:10:43.722Z,62.02
2023-05-10T06:11:43.708Z,61.89
2023-05-10T06:12:43.704Z,61.76
2023-05-10T06:13:43.699Z,61.53
2023-05-10T06:14:43.699Z,61.40
2023-05-10T06:15:43.793Z,61.77
2023-05-10T06:16:43.754Z,61.26
2023-05-10T06:17:43.769Z,61.76
2023-05-10T06:18:43.710Z,61.66
2023-05-10T06:19:43.702Z,62.00
2023-05-10T06:20:43.693Z,62.28
2023-05-10T06:21:43.613Z,62.36
2023-05-10T06:22:44.562Z,62.06
2023-05-10T06:23:44.058Z,62.67
2023-05-10T06:24:43.636Z,62.02
2023-05-10T06:25:43.634Z,62.14
2023-05-10T06:26:43.634Z,61.43
2023-05-10T06:27:44.344Z,61.81
2023-05-10T06:28:43.611Z,62.00
2023-05-10T06:29:44.135Z,61.90
2023-05-10T06:30:43.580Z,61.77
2023-05-10T06:31:43.639Z,62.25
2023-05-10T06:32:43.608Z,62.09
2023-05-10T06:33:43.637Z,61.41
2023-05-10T06:34:43.562Z,61.57
2023-05-10T06:35:43.674Z,62.28
2023-05-10T06:36:43.524Z,62.80
2023-05-10T06:37:43.550Z,61.89
2023-05-10T06:38:43.565Z,61.88
2023-05-10T06:39:43.551Z,62.08
2023-05-10T06:40:43.761Z,61.83
2023-05-10T06:41:43.686Z,61.98
2023-05-10T06:42:43.721Z,62.24
2023-05-10T06:43:43.787Z,62.29
2023-05-10T06:44:43.856Z,62.12
2023-05-10T06:45:43.892Z,62.63
2023-05-10T06:48:03.518Z,62.60
2023-05-10T06:49:04.452Z,62.08
2023-05-10T06:50:03.410Z,62.33
2023-05-10T06:51:03.414Z,61.70
2023-05-10T06:52:03.396Z,63.11
2023-05-10T06:53:03.402Z,64.01
2023-05-10T06:54:03.417Z,63.62
2023-05-10T06:55:03.429Z,63.30
2023-05-10T06:56:04.417Z,62.60
2023-05-10T06:57:04.165Z,61.97
2023-05-10T06:58:03.419Z,61.52
2023-05-10T06:59:03.454Z,61.60
2023-05-10T07:00:03.609Z,61.19
2023-05-10T07:01:03.610Z,60.57
2023-05-10T07:02:03.668Z,60.42
2023-05-10T07:03:03.720Z,60.82
2023-05-10T07:04:04.043Z,59.29
2023-05-10T07:05:03.833Z,59.32
2023-05-10T07:06:03.904Z,59.67
2023-05-10T07:07:03.936Z,59.75
2023-05-10T07:08:03.970Z,59.37
2023-05-10T07:09:04.027Z,59.59
2023-05-10T07:10:04.088Z,59.05
2023-05-10T07:11:04.114Z,59.27
2023-05-10T07:12:04.187Z,59.26
2023-05-10T07:13:04.196Z,59.76
2023-05-10T07:14:04.209Z,59.63
2023-05-10T07:15:04.253Z,58.71
2023-05-10T07:16:04.235Z,60.22
2023-05-10T07:17:04.243Z,58.98
2023-05-10T07:18:04.489Z,58.69
2023-05-10T07:19:04.302Z,58.61
2023-05-10T07:20:04.530Z,58.80
2023-05-10T07:21:04.382Z,58.27
2023-05-10T07:22:04.424Z,56.76
2023-05-10T07:23:04.472Z,57.53
2023-05-10T07:24:04.576Z,57.04
2023-05-10T07:25:04.802Z,57.15
2023-05-10T07:26:04.662Z,58.19
2023-05-10T07:27:04.704Z,57.63
2023-05-10T07:28:04.664Z,57.75
2023-05-10T07:29:04.686Z,57.86
2023-05-10T07:30:04.776Z,60.06
2023-05-10T07:31:04.797Z,57.96
2023-05-10T07:32:04.812Z,57.99
2023-05-10T07:33:04.772Z,58.48
2023-05-10T07:34:04.809Z,56.72
2023-05-10T07:35:04.825Z,56.95
2023-05-10T07:36:04.757Z,57.13
2023-05-10T07:37:04.781Z,58.19
2023-05-10T07:38:04.783Z,59.07
2023-05-10T07:39:04.793Z,59.58
2023-05-10T07:40:04.868Z,59.29
2023-05-10T07:41:04.838Z,58.99
2023-05-10T07:42:04.911Z,58.65
2023-05-10T07:43:04.965Z,58.44
2023-05-10T07:44:05.012Z,58.08
2023-05-10T07:45:05.085Z,57.37
2023-05-10T07:46:05.213Z,56.48
2023-05-10T07:47:05.169Z,57.01
2023-05-10T07:48:05.265Z,57.12
2023-05-10T07:49:05.269Z,57.67
2023-05-10T07:50:05.537Z,56.04
2023-05-10T07:51:05.348Z,55.26
2023-05-10T07:52:05.367Z,55.24
2023-05-10T07:53:05.449Z,56.20
2023-05-10T07:54:05.566Z,57.23
2023-05-10T07:55:05.571Z,57.29
2023-05-10T07:56:05.620Z,56.04
2023-05-10T07:57:05.629Z,55.56
2023-05-10T07:58:05.685Z,55.18
2023-05-10T07:59:05.635Z,53.94
2023-05-10T08:00:05.720Z,54.50
2023-05-10T08:01:05.757Z,53.36
2023-05-10T08:02:05.854Z,54.09
2023-05-10T08:03:05.909Z,54.95
2023-05-10T08:04:05.920Z,55.30
2023-05-10T08:05:05.855Z,56.03
2023-05-10T08:06:05.912Z,55.77
2023-05-10T08:07:05.975Z,55.31
2023-05-10T08:08:06.010Z,53.99
2023-05-10T08:09:06.043Z,54.21
2023-05-10T08:10:06.077Z,55.41
2023-05-10T08:11:06.074Z,55.49
2023-05-10T08:12:06.195Z,56.45
2023-05-10T08:13:06.253Z,56.72
2023-05-10T08:14:06.234Z,57.12
2023-05-10T08:15:06.260Z,57.12
2023-05-10T08:16:06.409Z,57.32
2023-05-10T08:17:06.941Z,56.32
2023-05-10T08:18:06.511Z,57.37
2023-05-10T08:19:06.513Z,59.26
2023-05-10T08:20:06.612Z,56.92
2023-05-10T08:21:06.526Z,56.61
2023-05-10T08:22:06.577Z,58.09
2023-05-10T08:23:06.583Z,57.84
2023-05-10T08:24:06.626Z,56.86
2023-05-10T08:25:07.420Z,57.10
2023-05-10T08:26:06.811Z,57.06
2023-05-10T08:27:06.822Z,57.72
2023-05-10T08:28:06.846Z,58.33
2023-05-10T08:29:06.845Z,58.78
2023-05-10T08:30:07.143Z,59.68
2023-05-10T08:31:07.017Z,59.39
2023-05-10T08:32:06.982Z,59.71
2023-05-10T08:33:07.105Z,60.18
2023-05-10T08:34:07.062Z,59.61
2023-05-10T08:35:07.154Z,60.50
2023-05-10T08:36:07.622Z,60.46
2023-05-10T08:37:07.185Z,61.44
2023-05-10T08:38:07.262Z,61.00
2023-05-10T08:39:13.532Z,61.08
2023-05-10T08:40:08.230Z,61.37
2023-05-10T08:41:07.306Z,61.24
2023-05-10T08:42:07.229Z,60.99
2023-05-10T08:43:07.384Z,60.75
2023-05-10T08:44:07.205Z,60.12
2023-05-10T08:45:07.530Z,59.76
2023-05-10T08:46:07.825Z,59.77
2023-05-10T08:47:07.327Z,59.60
2023-05-10T08:48:07.242Z,59.55
2023-05-10T08:49:07.190Z,59.19
2023-05-10T08:50:07.207Z,59.02
2023-05-10T08:51:07.607Z,59.41
2023-05-10T08:52:07.265Z,58.56
2023-05-10T08:53:07.292Z,58.02
2023-05-10T08:54:07.302Z,58.20
2023-05-10T08:55:07.344Z,58.67
2023-05-10T08:56:07.388Z,58.26
2023-05-10T08:57:07.404Z,58.19
2023-05-10T08:58:07.367Z,57.44
2023-05-10T08:59:07.372Z,57.72
2023-05-10T09:00:07.450Z,56.71
2023-05-10T09:01:07.844Z,56.70
2023-05-10T09:02:07.473Z,57.20
2023-05-10T09:03:07.571Z,56.83
2023-05-10T09:04:07.692Z,56.03
2023-05-10T09:05:07.686Z,56.48
2023-05-10T09:06:08.125Z,57.27
2023-05-10T09:07:07.656Z,56.81
2023-05-10T09:08:07.662Z,57.36
2023-05-10T09:09:07.669Z,56.29
2023-05-10T09:10:07.716Z,56.65
2023-05-10T09:11:08.544Z,57.47
2023-05-10T09:12:08.717Z,55.15
2023-05-10T09:13:07.723Z,55.17
2023-05-10T09:14:07.651Z,55.35
2023-05-10T09:15:07.719Z,55.56
2023-05-10T09:16:20.286Z,55.33
2023-05-10T09:17:08.754Z,55.30
2023-05-10T09:18:07.743Z,54.85
2023-05-10T09:19:07.752Z,55.12
2023-05-10T09:20:07.708Z,55.90
2023-05-10T09:21:07.692Z,55.45
2023-05-10T09:22:07.685Z,54.11
2023-05-10T09:23:07.736Z,54.08
2023-05-10T09:24:07.754Z,53.69
2023-05-10T09:25:07.814Z,54.05
2023-05-10T09:26:07.856Z,54.74
2023-05-10T09:27:07.935Z,53.82
2023-05-10T09:28:07.992Z,54.57
2023-05-10T09:29:08.090Z,54.32
2023-05-10T09:30:08.064Z,54.42
2023-05-10T09:31:08.168Z,54.21
2023-05-10T09:32:08.105Z,53.76
2023-05-10T09:33:08.137Z,53.99
2023-05-10T09:34:08.205Z,53.73
2023-05-10T09:35:08.126Z,54.79
2023-05-10T09:36:08.613Z,53.61
2023-05-10T09:37:08.133Z,54.49
2023-05-10T09:38:08.162Z,54.55
2023-05-10T09:39:08.168Z,55.22
2023-05-10T09:40:08.228Z,54.41
2023-05-10T09:41:08.190Z,54.25
2023-05-10T09:42:08.223Z,54.24
2023-05-10T09:43:08.410Z,54.69
2023-05-10T09:44:08.313Z,55.16
2023-05-10T09:45:08.363Z,54.94
2023-05-10T09:46:08.387Z,55.39
2023-05-10T09:47:08.421Z,55.74
2023-05-10T09:48:08.459Z,56.46
2023-05-10T09:49:08.492Z,56.09
2023-05-10T09:50:08.506Z,56.49
2023-05-10T09:51:08.647Z,56.48
2023-05-10T09:52:08.605Z,56.49
2023-05-10T09:53:08.578Z,56.18
2023-05-10T09:54:08.633Z,56.45
2023-05-10T09:55:08.654Z,55.56
2023-05-10T09:56:08.647Z,56.58
2023-05-10T09:57:08.671Z,56.58
2023-05-10T09:58:08.714Z,57.77
2023-05-10T09:59:09.461Z,56.71
2023-05-10T10:00:08.729Z,55.97
2023-05-10T10:01:08.839Z,57.25
2023-05-10T10:02:08.718Z,55.99
2023-05-10T10:03:08.822Z,55.37
2023-05-10T10:04:08.730Z,55.62
2023-05-10T10:05:08.762Z,55.39
2023-05-10T10:06:18.840Z,54.80
2023-05-10T10:07:09.706Z,55.34
2023-05-10T10:08:08.666Z,55.32
2023-05-10T10:09:08.706Z,55.38
2023-05-10T10:10:08.733Z,55.55
2023-05-10T10:11:09.099Z,55.82
2023-05-10T10:12:08.641Z,56.89
2023-05-10T10:13:08.620Z,55.69
2023-05-10T10:14:08.704Z,53.87
2023-05-10T10:15:08.656Z,53.69
2023-05-10T10:16:08.662Z,54.32
2023-05-10T10:17:09.090Z,52.40
2023-05-10T10:18:08.658Z,52.46
2023-05-10T10:19:08.614Z,52.72
2023-05-10T10:20:10.466Z,52.45
2023-05-10T10:21:08.572Z,52.81
2023-05-10T10:22:08.621Z,53.98
2023-05-10T10:23:08.556Z,54.54
2023-05-10T10:24:08.578Z,54.59
2023-05-10T10:25:08.563Z,53.27
2023-05-10T10:26:08.644Z,54.00
2023-05-10T10:27:08.568Z,53.01
2023-05-10T10:28:08.513Z,53.44
2023-05-10T10:29:08.585Z,52.87
2023-05-10T10:30:08.587Z,49.87
2023-05-10T10:31:08.584Z,50.81
2023-05-10T10:32:08.605Z,50.87
2023-05-10T10:33:20.183Z,51.99
2023-05-10T10:34:09.534Z,52.06
2023-05-10T10:35:08.530Z,50.57
2023-05-10T10:36:08.508Z,50.79
2023-05-10T10:37:08.628Z,50.55
2023-05-10T10:38:08.532Z,51.45
2023-05-10T10:39:08.546Z,51.02
2023-05-10T10:40:08.449Z,52.64
2023-05-10T10:41:08.446Z,53.93
2023-05-10T10:42:08.637Z,55.03
2023-05-10T10:43:08.467Z,55.72
2023-05-10T10:44:08.452Z,53.68
2023-05-10T10:45:08.481Z,53.20
2023-05-10T10:46:08.440Z,52.96
2023-05-10T10:47:08.691Z,54.28
2023-05-10T10:48:08.542Z,50.84
2023-05-10T10:49:08.476Z,54.05
2023-05-10T10:50:08.552Z,52.97
2023-05-10T10:51:10.087Z,51.64
2023-05-10T10:52:08.532Z,52.99
2023-05-10T10:53:08.550Z,52.24
2023-05-10T10:54:08.619Z,52.49
2023-05-10T10:55:08.629Z,51.68
2023-05-10T10:56:08.678Z,51.70
2023-05-10T10:57:08.716Z,50.36
2023-05-10T10:58:08.642Z,51.45
2023-05-10T10:59:08.688Z,52.04
2023-05-10T11:00:08.724Z,49.53
2023-05-10T11:01:08.756Z,47.89
2023-05-10T11:02:08.812Z,46.50
2023-05-10T11:03:08.916Z,46.68
2023-05-10T11:04:08.818Z,46.95
2023-05-10T11:05:08.822Z,47.92
2023-05-10T11:06:08.892Z,48.45
2023-05-10T11:07:09.155Z,48.54
2023-05-10T11:08:08.943Z,48.18
2023-05-10T11:09:08.985Z,48.51
2023-05-10T11:10:08.949Z,49.03
2023-05-10T11:11:09.000Z,50.87
2023-05-10T11:12:09.237Z,49.51
2023-05-10T11:13:09.101Z,48.27
2023-05-10T11:14:09.145Z,47.89
2023-05-10T11:15:10.448Z,49.81
2023-05-10T11:16:09.242Z,49.80
2023-05-10T11:17:09.298Z,49.60
2023-05-10T11:18:09.343Z,48.17
2023-05-10T11:19:09.462Z,47.48
2023-05-10T11:20:09.458Z,48.62
2023-05-10T11:21:09.490Z,48.19
2023-05-10T11:22:09.613Z,47.70
2023-05-10T11:23:09.612Z,48.68
2023-05-10T11:24:09.662Z,50.08
2023-05-10T11:25:09.679Z,50.20
2023-05-10T11:26:09.860Z,50.67
2023-05-10T11:27:10.378Z,48.37
2023-05-10T11:28:09.990Z,48.82
2023-05-10T11:29:10.197Z,49.90
2023-05-10T11:30:09.953Z,49.85
2023-05-10T11:31:09.924Z,50.31
2023-05-10T11:32:10.229Z,50.96
2023-05-10T11:33:10.002Z,51.00
2023-05-10T11:34:09.890Z,51.86
2023-05-10T11:35:09.901Z,50.30
2023-05-10T11:36:09.896Z,51.01
2023-05-10T11:37:09.868Z,52.07
2023-05-10T11:38:10.151Z,51.38
2023-05-10T11:39:09.889Z,49.53
2023-05-10T11:40:09.883Z,47.78
2023-05-10T11:41:10.030Z,48.69
2023-05-10T11:42:09.901Z,48.96
2023-05-10T11:43:10.123Z,50.26
2023-05-10T11:44:09.964Z,50.85
2023-05-10T11:45:10.034Z,51.26
2023-05-10T11:46:10.056Z,50.13
2023-05-10T11:47:10.117Z,49.61
2023-05-10T11:48:10.201Z,51.44
2023-05-10T11:49:10.149Z,52.02
2023-05-10T11:50:10.159Z,52.44
2023-05-10T11:51:10.186Z,51.99
2023-05-10T11:52:10.209Z,51.10
2023-05-10T11:53:10.228Z,51.72
2023-05-10T11:54:10.292Z,50.99
2023-05-10T11:55:10.349Z,51.02
2023-05-10T11:56:10.362Z,51.76
2023-05-10T11:57:10.408Z,52.27
2023-05-10T11:58:10.493Z,51.13
2023-05-10T11:59:10.499Z,52.07
2023-05-10T12:00:10.567Z,51.89
2023-05-10T12:01:10.606Z,53.31
2023-05-10T12:02:10.695Z,52.70
2023-05-10T12:03:11.221Z,55.47
2023-05-10T12:04:11.001Z,55.05
2023-05-10T12:05:10.900Z,54.33
2023-05-10T12:06:10.932Z,54.70
2023-05-10T12:07:10.927Z,54.77
2023-05-10T12:08:11.002Z,55.33
2023-05-10T12:09:11.057Z,54.80
2023-05-10T12:10:11.138Z,55.03
2023-05-10T12:11:11.116Z,55.74
2023-05-10T12:12:11.132Z,55.64
2023-05-10T12:13:11.158Z,55.42
2023-05-10T12:14:11.162Z,56.53
2023-05-10T12:15:11.173Z,55.60
2023-05-10T12:16:11.234Z,56.29
2023-05-10T12:17:11.157Z,57.17
2023-05-10T12:18:11.273Z,56.08
2023-05-10T12:19:11.389Z,56.99
2023-05-10T12:20:11.213Z,56.41
2023-05-10T12:21:11.275Z,56.47
2023-05-10T12:22:11.246Z,57.50
2023-05-10T12:23:11.240Z,56.66
2023-05-10T12:24:11.303Z,56.84
2023-05-10T12:25:11.268Z,56.84
2023-05-10T12:26:11.355Z,58.57
2023-05-10T12:27:11.433Z,58.65
2023-05-10T12:28:11.387Z,56.72
2023-05-10T12:29:11.395Z,57.49
2023-05-10T12:30:11.472Z,58.89
2023-05-10T12:31:11.515Z,56.59
2023-05-10T12:32:11.553Z,57.26
2023-05-10T12:33:11.679Z,57.11
2023-05-10T12:34:11.613Z,57.66
2023-05-10T12:35:11.637Z,57.22
2023-05-10T12:36:11.724Z,53.82
2023-05-10T12:37:11.692Z,55.33
2023-05-10T12:38:11.753Z,55.29
2023-05-10T12:39:11.762Z,55.81
2023-05-10T12:40:11.796Z,55.13
2023-05-10T12:41:11.916Z,54.74
2023-05-10T12:42:11.892Z,55.11
2023-05-10T12:43:11.957Z,55.40
2023-05-10T12:44:11.958Z,56.01
2023-05-10T12:45:12.020Z,57.28
2023-05-10T12:46:12.128Z,57.53
2023-05-10T12:47:12.126Z,54.90
2023-05-10T12:48:12.672Z,55.01
2023-05-10T12:49:12.201Z,55.81
2023-05-10T12:50:12.365Z,55.82
2023-05-10T12:51:12.369Z,55.29
2023-05-10T12:52:12.424Z,54.64
2023-05-10T12:53:12.521Z,55.30
2023-05-10T12:54:12.528Z,56.10
2023-05-10T12:55:12.551Z,56.43
2023-05-10T12:56:12.591Z,56.51
2023-05-10T12:57:12.641Z,56.07